createdAt,value
2022-08-01T00:00:52.380Z,99376.75
2022-08-01T00:05:55.875Z,99374.16
2022-08-01T00:11:02.636Z,99375.03
2022-08-01T00:16:07.832Z,99368.25
2022-08-01T00:21:11.568Z,99372.28
2022-08-01T00:26:15.862Z,99371.28
2022-08-01T00:31:21.233Z,99357.19
2022-08-01T00:36:24.784Z,99369.44
2022-08-01T00:41:28.601Z,99372.28
2022-08-01T00:46:33.788Z,99373.28
2022-08-01T00:51:37.322Z,99368.00
2022-08-01T00:56:40.681Z,99372.41
2022-08-01T01:01:46.750Z,99368.91
2022-08-01T01:07:05.656Z,99365.59
2022-08-01T01:12:19.907Z,99355.34
2022-08-01T01:17:50.080Z,99357.19
2022-08-01T01:23:08.573Z,99358.22
2022-08-01T01:28:19.387Z,99360.91
2022-08-01T01:33:29.450Z,99359.25
2022-08-01T01:38:39.035Z,99362.84
2022-08-01T01:43:42.909Z,99354.28
2022-08-01T01:48:49.858Z,99346.44
2022-08-01T01:53:55.647Z,99349.13
2022-08-01T01:59:03.091Z,99347.41
2022-08-01T02:04:08.848Z,99356.22
2022-08-01T02:09:12.705Z,99350.97
2022-08-01T02:14:17.841Z,99356.09
2022-08-01T02:19:23.203Z,99356.78
2022-08-01T02:24:34.094Z,99354.03
2022-08-01T02:29:42.672Z,99349.72
2022-08-01T02:34:51.500Z,99349.56
2022-08-01T02:39:57.164Z,99333.00
2022-08-01T02:45:00.686Z,99351.19
2022-08-01T02:50:09.282Z,99354.31
2022-08-01T02:55:15.304Z,99350.63
2022-08-01T03:00:20.430Z,99348.81
2022-08-01T03:05:31.014Z,99351.16
2022-08-01T03:10:36.050Z,99355.16
2022-08-01T03:15:42.420Z,99352.91
2022-08-01T03:20:48.402Z,99354.19
2022-08-01T03:25:52.942Z,99362.16
2022-08-01T03:30:56.555Z,99349.31
2022-08-01T03:36:04.384Z,99314.25
2022-08-01T03:41:14.279Z,99343.00
2022-08-01T03:46:22.540Z,99336.50
2022-08-01T03:51:31.991Z,99346.81
2022-08-01T03:56:36.630Z,99341.38
2022-08-01T04:01:40.216Z,99349.47
2022-08-01T04:06:46.144Z,99346.59
2022-08-01T04:11:50.493Z,99353.44
2022-08-01T04:16:53.850Z,99332.97
2022-08-01T04:21:58.894Z,99345.75
2022-08-01T04:27:03.939Z,99350.28
2022-08-01T04:32:10.809Z,99342.88
2022-08-01T04:37:18.594Z,99354.16
2022-08-01T04:42:25.088Z,99349.00
2022-08-01T04:47:32.790Z,99351.09
2022-08-01T04:52:39.159Z,99345.63
2022-08-01T04:57:46.335Z,99349.59
2022-08-01T05:02:49.727Z,99354.44
2022-08-01T05:07:56.965Z,99352.06
2022-08-01T05:13:00.782Z,99350.38
2022-08-01T05:18:04.149Z,99350.75
2022-08-01T05:23:10.698Z,99356.69
2022-08-01T05:28:19.035Z,99349.00
2022-08-01T05:33:22.915Z,99361.41
2022-08-01T05:38:27.615Z,99362.25
2022-08-01T05:43:31.032Z,99349.56
2022-08-01T05:48:34.357Z,99352.34
2022-08-01T05:53:39.113Z,99344.66
2022-08-01T05:58:42.595Z,99344.09
2022-08-01T06:03:45.985Z,99342.25
2022-08-01T06:08:51.581Z,99337.09
2022-08-01T06:13:55.062Z,99344.47
2022-08-01T06:18:58.387Z,99341.09
2022-08-01T06:24:03.104Z,99342.88
2022-08-01T06:29:06.447Z,99337.69
2022-08-01T06:34:09.813Z,99346.91
2022-08-01T06:39:14.563Z,99341.88
2022-08-01T06:44:17.908Z,99345.56
2022-08-01T06:49:21.264Z,99339.53
2022-08-01T06:54:26.089Z,99339.81
2022-08-01T06:59:29.390Z,99343.63
2022-08-01T07:04:33.259Z,99343.75
2022-08-01T07:09:37.970Z,99340.81
2022-08-01T07:14:41.352Z,99350.03
2022-08-01T07:19:44.920Z,99345.75
2022-08-01T07:24:54.429Z,99344.84
2022-08-01T07:29:58.197Z,99339.94
2022-08-01T07:35:01.730Z,99338.13
2022-08-01T07:40:09.461Z,99330.88
2022-08-01T07:45:14.722Z,99343.72
2022-08-01T07:50:18.787Z,99331.34
2022-08-01T07:55:23.754Z,99336.97
2022-08-01T08:00:28.595Z,99326.63
2022-08-01T08:05:58.842Z,99321.88
2022-08-01T08:10:56.810Z,99315.06
2022-08-01T08:16:00.872Z,99319.06
2022-08-01T08:21:06.751Z,99320.78
2022-08-01T08:26:11.908Z,99314.03
2022-08-01T08:31:25.507Z,99311.97
2022-08-01T08:36:38.692Z,99311.72
2022-08-01T08:41:52.540Z,99310.72
2022-08-01T08:46:57.386Z,99306.09
2022-08-01T08:52:02.249Z,99302.16
2022-08-01T08:57:08.066Z,99302.38
2022-08-01T09:02:13.702Z,99298.72
2022-08-01T09:07:17.310Z,99292.59
2022-08-01T09:12:22.563Z,99299.00
2022-08-01T09:17:26.222Z,99296.91
2022-08-01T09:22:35.449Z,99293.34
2022-08-01T09:27:44.379Z,99280.06
2022-08-01T09:32:57.830Z,99282.44
2022-08-01T09:38:23.465Z,99282.00
2022-08-01T09:43:31.479Z,99278.63
2022-08-01T09:48:35.275Z,99284.19
2022-08-01T09:53:52.488Z,99255.22
2022-08-01T09:59:01.595Z,99270.50
2022-08-01T10:04:11.338Z,99261.00
2022-08-01T10:09:16.404Z,99260.31
2022-08-01T10:14:21.725Z,99249.66
2022-08-01T10:19:28.863Z,99259.19
2022-08-01T10:24:33.557Z,99249.06
2022-08-01T10:29:46.163Z,99263.94
2022-08-01T10:35:06.570Z,99250.56
2022-08-01T10:40:29.819Z,99251.78
2022-08-01T10:45:36.104Z,99261.75
2022-08-01T10:50:44.200Z,99264.56
2022-08-01T10:55:53.343Z,99258.19
2022-08-01T11:01:23.163Z,99249.38
2022-08-01T11:06:28.174Z,99254.84
2022-08-01T11:11:37.783Z,99242.38
2022-08-01T11:16:43.210Z,99247.00
2022-08-01T11:22:04.954Z,99232.34
2022-08-01T11:27:31.344Z,99230.47
2022-08-01T11:33:10.800Z,99230.16
2022-08-01T11:38:29.891Z,99228.38
2022-08-01T11:43:33.250Z,99225.34
2022-08-01T11:48:37.717Z,99227.13
2022-08-01T11:53:48.694Z,99223.72
2022-08-01T11:59:00.851Z,99215.22
2022-08-01T12:04:06.195Z,99216.91
2022-08-01T12:09:21.203Z,99211.19
2022-08-01T12:14:24.535Z,99210.59
2022-08-01T12:19:29.336Z,99209.09
2022-08-01T12:24:32.768Z,99212.22
2022-08-01T12:29:37.765Z,99213.56
2022-08-01T12:34:42.515Z,99205.44
2022-08-01T12:39:46.236Z,99215.63
2022-08-01T12:44:53.149Z,99202.88
2022-08-01T12:49:59.299Z,99200.97
2022-08-01T12:55:06.437Z,99194.78
2022-08-01T13:00:18.248Z,99201.84
2022-08-01T13:05:27.081Z,99192.56
2022-08-01T13:10:31.930Z,99185.59
2022-08-01T13:15:41.505Z,99183.66
2022-08-01T13:20:50.553Z,99172.22
2022-08-01T13:25:58.194Z,99160.31
2022-08-01T13:31:02.838Z,99168.06
2022-08-01T13:36:08.102Z,99172.81
2022-08-01T13:41:11.551Z,99177.53
2022-08-01T13:46:14.584Z,99164.31
2022-08-01T13:51:23.523Z,99170.25
2022-08-01T13:56:29.231Z,99169.81
2022-08-01T14:01:34.659Z,99171.13
2022-08-01T14:06:39.673Z,99164.91
2022-08-01T14:11:45.947Z,99167.19
2022-08-01T14:16:49.498Z,99165.38
2022-08-01T14:21:55.380Z,99165.50
2022-08-01T14:26:58.914Z,99159.56
2022-08-01T14:32:01.990Z,99169.28
2022-08-01T14:37:06.690Z,99164.00
2022-08-01T14:42:11.756Z,99154.03
2022-08-01T14:47:22.148Z,99160.50
2022-08-01T14:52:27.441Z,99148.25
2022-08-01T14:57:30.840Z,99156.50
2022-08-01T15:02:34.354Z,99145.94
2022-08-01T15:07:51.702Z,99138.00
2022-08-01T15:12:57.900Z,99134.97
2022-08-01T15:18:01.304Z,99129.44
2022-08-01T15:23:06.183Z,99137.03
2022-08-01T15:28:10.756Z,99137.25
2022-08-01T15:33:14.308Z,99139.53
2022-08-01T15:38:20.370Z,99144.53
2022-08-01T15:43:23.731Z,99129.63
2022-08-01T15:48:30.495Z,99140.41
2022-08-01T15:53:35.243Z,99134.94
2022-08-01T15:58:38.684Z,99127.69
2022-08-01T16:03:42.012Z,99128.47
2022-08-01T16:08:46.694Z,99130.69
2022-08-01T16:13:50.143Z,99125.06
2022-08-01T16:18:54.039Z,99129.78
2022-08-01T16:23:59.209Z,99125.00
2022-08-01T16:29:02.770Z,99133.69
2022-08-01T16:34:06.110Z,99130.63
2022-08-01T16:39:11.547Z,99138.34
2022-08-01T16:44:16.347Z,99141.19
2022-08-01T16:49:32.846Z,99140.78
2022-08-01T16:54:37.747Z,99150.63
2022-08-01T16:59:42.009Z,99149.59
2022-08-01T17:04:45.694Z,99146.13
2022-08-01T17:09:50.602Z,99153.06
2022-08-01T17:14:54.509Z,99148.06
2022-08-01T17:19:58.025Z,99157.19
2022-08-01T17:25:02.878Z,99153.88
2022-08-01T17:30:07.945Z,99151.84
2022-08-01T17:35:12.507Z,99161.44
2022-08-01T17:40:39.061Z,99160.13
2022-08-01T17:45:50.943Z,99153.56
2022-08-01T17:50:54.900Z,99161.72
2022-08-01T17:56:05.722Z,99157.88
2022-08-01T18:01:09.586Z,99166.31
2022-08-01T18:06:15.743Z,99166.03
2022-08-01T18:11:21.249Z,99168.34
2022-08-01T18:16:24.803Z,99172.47
2022-08-01T18:21:28.115Z,99162.00
2022-08-01T18:26:33.018Z,99173.75
2022-08-01T18:31:36.463Z,99178.41
2022-08-01T18:36:40.503Z,99181.06
2022-08-01T18:41:45.829Z,99178.88
2022-08-01T18:46:49.321Z,99189.69
2022-08-01T18:51:54.311Z,99186.94
2022-08-01T18:56:59.090Z,99195.47
2022-08-01T19:02:02.571Z,99194.16
2022-08-01T19:07:06.037Z,99191.81
2022-08-01T19:12:11.147Z,99196.66
2022-08-01T19:17:14.819Z,99199.59
2022-08-01T19:22:18.730Z,99195.91
2022-08-01T19:27:26.540Z,99195.25
2022-08-01T19:32:33.025Z,99196.53
2022-08-01T19:37:36.743Z,99199.16
2022-08-01T19:42:42.874Z,99201.75
2022-08-01T19:47:50.969Z,99198.19
2022-08-01T19:53:03.202Z,99195.25
2022-08-01T19:58:26.394Z,99185.19
2022-08-01T20:03:32.732Z,99201.50
2022-08-01T20:08:36.789Z,99182.78
2022-08-01T20:13:41.682Z,99196.09
2022-08-01T20:18:45.505Z,99198.78
2022-08-01T20:23:52.130Z,99210.47
2022-08-01T20:28:57.965Z,99210.34
2022-08-01T20:34:02.803Z,99216.78
2022-08-01T20:39:06.329Z,99215.00
2022-08-01T20:44:14.130Z,99226.53
2022-08-01T20:49:18.154Z,99216.88
2022-08-01T20:54:21.887Z,99234.75
2022-08-01T20:59:39.975Z,99230.16
2022-08-01T21:05:02.102Z,99234.56
2022-08-01T21:10:09.113Z,99224.94
2022-08-01T21:15:20.086Z,99231.88
2022-08-01T21:20:23.884Z,99232.91
2022-08-01T21:25:34.055Z,99229.97
2022-08-01T21:30:41.421Z,99232.06
2022-08-01T21:35:47.260Z,99229.69
2022-08-01T21:40:51.853Z,99229.91
2022-08-01T21:45:58.457Z,99225.06
2022-08-01T21:51:06.967Z,99212.38
2022-08-01T21:56:20.778Z,99219.28
2022-08-01T22:01:31.998Z,99226.44
2022-08-01T22:06:37.010Z,99223.13
2022-08-01T22:12:10.237Z,99223.84
2022-08-01T22:17:07.550Z,99231.94
2022-08-01T22:22:32.233Z,99227.03
2022-08-01T22:28:06.131Z,99239.09
2022-08-01T22:33:07.202Z,99239.09
2022-08-01T22:38:20.968Z,99240.06
2022-08-01T22:43:30.728Z,99237.63
2022-08-01T22:48:42.010Z,99242.19
2022-08-01T22:54:01.892Z,99243.03
2022-08-01T22:59:13.477Z,99241.56
2022-08-01T23:04:33.138Z,99231.16
2022-08-01T23:09:53.121Z,99226.84
2022-08-01T23:14:59.413Z,99212.56
2022-08-01T23:20:07.409Z,99214.25
2022-08-01T23:25:12.731Z,99203.09
2022-08-01T23:30:16.136Z,99206.72
2022-08-01T23:35:21.036Z,99205.72
2022-08-01T23:40:24.868Z,99207.41
2022-08-01T23:45:28.743Z,99215.72
2022-08-01T23:50:53.428Z,99214.97
2022-08-01T23:55:56.722Z,99209.16
